KFAY

Fayetteville Regional / Grannis Field Airport

Fayetteville, North Carolina, USA
METAR KFAY 230453Z 20004KT 10SM CLR 07/05 A3024 RMK AO2 SLP237 T00720050 401830022
Observed Flight Rules
Oct-23 @ 04:53 UTC (25 minutes ago) Visual Flight Rules
Wind Visibility Clouds
200° at 4 knots 10 miles
  • Clear skies
Temperatures Readings
Current 7°C / 45°F
Dewpoint 5°C / 41°F
Humidity 87%
Altimeter 30.24" Hg
Pressure 1023.7 hPa
Elevation 55
METAR KFAY 230453Z 20004KT 10SM CLR 07/05 A3024 RMK AO2 SLP237 T00720050 401830022
Observed Flight Rules
Oct-23 @ 04:53 UTC
(25 minutes ago)
VFR
Wind Visibility
200° at 4 knots 10 miles
Clouds
  • Clear skies
Temperature Dewpoint
7°C / 45°F 5°C / 41°F
Humidity Altimeter Pressure
87% 30.24" Hg 1023.7 hPa